sensor_id;sensor_type;location;lat;lon;timestamp;P1;durP1;ratioP1;P2;durP2;ratioP2
46463;SDS011;32161;48.148;-1.554;2023-09-18T00:00:16;5.13;;;2.38;;
46463;SDS011;32161;48.148;-1.554;2023-09-18T00:02:46;6.30;;;2.97;;
46463;SDS011;32161;48.148;-1.554;2023-09-18T00:05:14;5.55;;;3.22;;
46463;SDS011;32161;48.148;-1.554;2023-09-18T00:07:42;3.88;;;3.00;;
46463;SDS011;32161;48.148;-1.554;2023-09-18T00:10:10;6.15;;;3.22;;
46463;SDS011;32161;48.148;-1.554;2023-09-18T00:12:39;4.45;;;3.17;;
46463;SDS011;32161;48.148;-1.554;2023-09-18T00:15:07;6.70;;;2.90;;
46463;SDS011;32161;48.148;-1.554;2023-09-18T00:17:36;7.07;;;3.63;;
46463;SDS011;32161;48.148;-1.554;2023-09-18T00:20:04;8.07;;;3.28;;
46463;SDS011;32161;48.148;-1.554;2023-09-18T00:22:33;8.63;;;3.53;;
46463;SDS011;32161;48.148;-1.554;2023-09-18T00:25:01;5.57;;;3.00;;
46463;SDS011;32161;48.148;-1.554;2023-09-18T00:27:29;7.60;;;3.10;;
46463;SDS011;32161;48.148;-1.554;2023-09-18T00:29:59;7.35;;;3.25;;
46463;SDS011;32161;48.148;-1.554;2023-09-18T00:32:27;4.15;;;3.30;;
46463;SDS011;32161;48.148;-1.554;2023-09-18T00:34:56;5.07;;;3.00;;
46463;SDS011;32161;48.148;-1.554;2023-09-18T00:37:23;4.22;;;2.85;;
46463;SDS011;32161;48.148;-1.554;2023-09-18T00:39:51;6.20;;;3.25;;
46463;SDS011;32161;48.148;-1.554;2023-09-18T00:42:18;7.55;;;3.35;;
46463;SDS011;32161;48.148;-1.554;2023-09-18T00:44:47;5.65;;;2.88;;
46463;SDS011;32161;48.148;-1.554;2023-09-18T00:47:17;9.00;;;3.28;;
46463;SDS011;32161;48.148;-1.554;2023-09-18T00:49:46;4.00;;;2.83;;
46463;SDS011;32161;48.148;-1.554;2023-09-18T00:52:16;8.80;;;3.08;;
46463;SDS011;32161;48.148;-1.554;2023-09-18T00:54:46;7.65;;;3.00;;
46463;SDS011;32161;48.148;-1.554;2023-09-18T00:57:14;3.85;;;3.55;;
46463;SDS011;32161;48.148;-1.554;2023-09-18T00:59:43;7.70;;;4.03;;
46463;SDS011;32161;48.148;-1.554;2023-09-18T01:02:11;5.63;;;3.30;;
46463;SDS011;32161;48.148;-1.554;2023-09-18T01:04:40;8.45;;;3.90;;
46463;SDS011;32161;48.148;-1.554;2023-09-18T01:07:09;7.47;;;3.58;;
46463;SDS011;32161;48.148;-1.554;2023-09-18T01:09:37;5.75;;;3.47;;
46463;SDS011;32161;48.148;-1.554;2023-09-18T01:12:05;8.70;;;3.60;;
46463;SDS011;32161;48.148;-1.554;2023-09-18T01:14:42;9.02;;;3.55;;
46463;SDS011;32161;48.148;-1.554;2023-09-18T01:17:22;5.00;;;3.10;;
46463;SDS011;32161;48.148;-1.554;2023-09-18T01:19:52;6.95;;;3.47;;
46463;SDS011;32161;48.148;-1.554;2023-09-18T01:22:19;6.95;;;3.30;;
46463;SDS011;32161;48.148;-1.554;2023-09-18T01:24:49;6.88;;;3.20;;
46463;SDS011;32161;48.148;-1.554;2023-09-18T01:27:17;5.15;;;3.47;;
46463;SDS011;32161;48.148;-1.554;2023-09-18T01:29:45;8.95;;;3.30;;
46463;SDS011;32161;48.148;-1.554;2023-09-18T01:32:14;8.68;;;4.25;;
46463;SDS011;32161;48.148;-1.554;2023-09-18T01:34:42;5.57;;;3.80;;
46463;SDS011;32161;48.148;-1.554;2023-09-18T01:37:14;6.05;;;4.03;;
46463;SDS011;32161;48.148;-1.554;2023-09-18T01:39:46;9.73;;;4.55;;
46463;SDS011;32161;48.148;-1.554;2023-09-18T01:42:17;10.43;;;4.55;;
46463;SDS011;32161;48.148;-1.554;2023-09-18T01:44:46;9.00;;;4.50;;
46463;SDS011;32161;48.148;-1.554;2023-09-18T01:47:16;13.55;;;5.10;;
46463;SDS011;32161;48.148;-1.554;2023-09-18T01:49:48;8.93;;;5.13;;
46463;SDS011;32161;48.148;-1.554;2023-09-18T01:52:16;6.20;;;4.55;;
46463;SDS011;32161;48.148;-1.554;2023-09-18T01:54:43;9.55;;;4.68;;
46463;SDS011;32161;48.148;-1.554;2023-09-18T01:57:13;12.70;;;5.50;;
46463;SDS011;32161;48.148;-1.554;2023-09-18T01:59:40;15.07;;;6.03;;
46463;SDS011;32161;48.148;-1.554;2023-09-18T02:02:08;13.27;;;6.35;;
46463;SDS011;32161;48.148;-1.554;2023-09-18T02:04:37;10.98;;;6.53;;
46463;SDS011;32161;48.148;-1.554;2023-09-18T02:07:05;7.93;;;5.80;;
46463;SDS011;32161;48.148;-1.554;2023-09-18T02:09:33;12.30;;;7.07;;
46463;SDS011;32161;48.148;-1.554;2023-09-18T02:12:00;12.02;;;7.07;;
46463;SDS011;32161;48.148;-1.554;2023-09-18T02:14:30;8.13;;;7.00;;
46463;SDS011;32161;48.148;-1.554;2023-09-18T02:16:59;10.98;;;7.68;;
46463;SDS011;32161;48.148;-1.554;2023-09-18T02:19:26;9.98;;;7.13;;
46463;SDS011;32161;48.148;-1.554;2023-09-18T02:21:55;9.45;;;7.22;;
46463;SDS011;32161;48.148;-1.554;2023-09-18T02:24:23;15.70;;;8.52;;
46463;SDS011;32161;48.148;-1.554;2023-09-18T02:26:51;10.23;;;8.20;;
46463;SDS011;32161;48.148;-1.554;2023-09-18T02:29:18;10.88;;;8.18;;
46463;SDS011;32161;48.148;-1.554;2023-09-18T02:31:47;13.90;;;8.48;;
46463;SDS011;32161;48.148;-1.554;2023-09-18T02:34:15;17.50;;;10.32;;
46463;SDS011;32161;48.148;-1.554;2023-09-18T02:36:44;9.25;;;8.02;;
46463;SDS011;32161;48.148;-1.554;2023-09-18T02:39:12;14.30;;;8.63;;
46463;SDS011;32161;48.148;-1.554;2023-09-18T02:41:40;11.73;;;8.02;;
46463;SDS011;32161;48.148;-1.554;2023-09-18T02:44:07;18.77;;;8.90;;
46463;SDS011;32161;48.148;-1.554;2023-09-18T02:46:36;14.38;;;8.27;;
46463;SDS011;32161;48.148;-1.554;2023-09-18T02:49:06;13.80;;;7.70;;
46463;SDS011;32161;48.148;-1.554;2023-09-18T02:51:33;10.75;;;7.43;;
46463;SDS011;32161;48.148;-1.554;2023-09-18T02:54:02;9.15;;;6.75;;
46463;SDS011;32161;48.148;-1.554;2023-09-18T02:56:29;9.30;;;7.15;;
46463;SDS011;32161;48.148;-1.554;2023-09-18T02:58:57;9.68;;;7.50;;
46463;SDS011;32161;48.148;-1.554;2023-09-18T03:01:24;8.70;;;6.75;;
46463;SDS011;32161;48.148;-1.554;2023-09-18T03:03:52;7.25;;;6.63;;
46463;SDS011;32161;48.148;-1.554;2023-09-18T03:06:21;7.80;;;6.68;;
46463;SDS011;32161;48.148;-1.554;2023-09-18T03:08:48;11.18;;;6.95;;
46463;SDS011;32161;48.148;-1.554;2023-09-18T03:11:16;8.32;;;6.13;;
46463;SDS011;32161;48.148;-1.554;2023-09-18T03:13:44;13.48;;;7.43;;
46463;SDS011;32161;48.148;-1.554;2023-09-18T03:16:12;11.07;;;7.28;;
46463;SDS011;32161;48.148;-1.554;2023-09-18T03:18:40;11.35;;;7.50;;
46463;SDS011;32161;48.148;-1.554;2023-09-18T03:21:08;12.55;;;8.82;;
46463;SDS011;32161;48.148;-1.554;2023-09-18T03:23:37;14.70;;;7.35;;
46463;SDS011;32161;48.148;-1.554;2023-09-18T03:26:04;8.45;;;7.45;;
46463;SDS011;32161;48.148;-1.554;2023-09-18T03:28:32;14.90;;;7.45;;
46463;SDS011;32161;48.148;-1.554;2023-09-18T03:30:59;9.73;;;7.53;;
46463;SDS011;32161;48.148;-1.554;2023-09-18T03:33:27;12.85;;;7.30;;
46463;SDS011;32161;48.148;-1.554;2023-09-18T03:35:54;12.02;;;6.90;;
46463;SDS011;32161;48.148;-1.554;2023-09-18T03:38:23;11.15;;;7.15;;
46463;SDS011;32161;48.148;-1.554;2023-09-18T03:40:52;11.90;;;7.75;;
46463;SDS011;32161;48.148;-1.554;2023-09-18T03:43:20;13.85;;;7.13;;
46463;SDS011;32161;48.148;-1.554;2023-09-18T03:45:47;10.98;;;6.75;;
46463;SDS011;32161;48.148;-1.554;2023-09-18T03:48:15;7.72;;;6.90;;
46463;SDS011;32161;48.148;-1.554;2023-09-18T03:50:42;10.00;;;6.38;;
46463;SDS011;32161;48.148;-1.554;2023-09-18T03:53:10;10.52;;;6.78;;
46463;SDS011;32161;48.148;-1.554;2023-09-18T03:55:37;8.13;;;6.63;;
46463;SDS011;32161;48.148;-1.554;2023-09-18T03:58:06;13.48;;;7.18;;
46463;SDS011;32161;48.148;-1.554;2023-09-18T04:00:34;20.33;;;7.07;;
46463;SDS011;32161;48.148;-1.554;2023-09-18T04:03:02;10.13;;;6.10;;
46463;SDS011;32161;48.148;-1.554;2023-09-18T04:05:30;7.10;;;6.28;;
46463;SDS011;32161;48.148;-1.554;2023-09-18T04:07:58;6.90;;;5.63;;
46463;SDS011;32161;48.148;-1.554;2023-09-18T04:10:25;11.95;;;5.40;;
46463;SDS011;32161;48.148;-1.554;2023-09-18T04:12:53;7.30;;;6.43;;
46463;SDS011;32161;48.148;-1.554;2023-09-18T04:15:22;9.38;;;5.47;;
46463;SDS011;32161;48.148;-1.554;2023-09-18T04:17:50;8.27;;;6.05;;
46463;SDS011;32161;48.148;-1.554;2023-09-18T04:20:18;7.50;;;5.65;;
46463;SDS011;32161;48.148;-1.554;2023-09-18T04:22:46;6.43;;;5.40;;
46463;SDS011;32161;48.148;-1.554;2023-09-18T04:25:14;7.55;;;5.50;;
46463;SDS011;32161;48.148;-1.554;2023-09-18T04:27:44;8.55;;;5.57;;
46463;SDS011;32161;48.148;-1.554;2023-09-18T04:30:11;5.97;;;5.50;;
46463;SDS011;32161;48.148;-1.554;2023-09-18T04:32:41;5.70;;;5.20;;
46463;SDS011;32161;48.148;-1.554;2023-09-18T04:35:09;5.43;;;5.00;;
46463;SDS011;32161;48.148;-1.554;2023-09-18T04:37:38;6.88;;;5.10;;
46463;SDS011;32161;48.148;-1.554;2023-09-18T04:40:06;4.90;;;4.50;;
46463;SDS011;32161;48.148;-1.554;2023-09-18T04:42:35;5.68;;;5.15;;
46463;SDS011;32161;48.148;-1.554;2023-09-18T04:45:05;5.18;;;4.68;;
46463;SDS011;32161;48.148;-1.554;2023-09-18T04:47:34;5.57;;;4.57;;
46463;SDS011;32161;48.148;-1.554;2023-09-18T04:50:04;6.00;;;5.40;;
46463;SDS011;32161;48.148;-1.554;2023-09-18T04:52:34;6.10;;;5.18;;
46463;SDS011;32161;48.148;-1.554;2023-09-18T04:55:02;6.93;;;5.18;;
46463;SDS011;32161;48.148;-1.554;2023-09-18T04:57:31;6.47;;;5.20;;
46463;SDS011;32161;48.148;-1.554;2023-09-18T04:59:59;8.23;;;4.82;;
46463;SDS011;32161;48.148;-1.554;2023-09-18T05:02:27;6.88;;;5.30;;
46463;SDS011;32161;48.148;-1.554;2023-09-18T05:04:56;5.80;;;5.18;;
46463;SDS011;32161;48.148;-1.554;2023-09-18T05:07:25;5.85;;;5.20;;
46463;SDS011;32161;48.148;-1.554;2023-09-18T05:09:52;8.15;;;5.60;;
46463;SDS011;32161;48.148;-1.554;2023-09-18T05:12:20;5.85;;;5.30;;
46463;SDS011;32161;48.148;-1.554;2023-09-18T05:14:48;10.63;;;5.55;;
46463;SDS011;32161;48.148;-1.554;2023-09-18T05:17:17;6.95;;;5.22;;
46463;SDS011;32161;48.148;-1.554;2023-09-18T05:19:44;8.20;;;4.88;;
46463;SDS011;32161;48.148;-1.554;2023-09-18T05:22:12;5.35;;;4.65;;
46463;SDS011;32161;48.148;-1.554;2023-09-18T05:24:41;4.88;;;4.53;;
46463;SDS011;32161;48.148;-1.554;2023-09-18T05:27:10;8.83;;;4.83;;
46463;SDS011;32161;48.148;-1.554;2023-09-18T05:29:37;8.73;;;4.78;;
46463;SDS011;32161;48.148;-1.554;2023-09-18T05:32:05;5.05;;;4.65;;
46463;SDS011;32161;48.148;-1.554;2023-09-18T05:34:32;6.53;;;4.72;;
46463;SDS011;32161;48.148;-1.554;2023-09-18T05:37:00;5.70;;;5.30;;
46463;SDS011;32161;48.148;-1.554;2023-09-18T05:39:28;5.90;;;5.40;;
46463;SDS011;32161;48.148;-1.554;2023-09-18T05:41:58;7.30;;;6.53;;
46463;SDS011;32161;48.148;-1.554;2023-09-18T05:44:25;8.15;;;6.05;;
46463;SDS011;32161;48.148;-1.554;2023-09-18T05:46:53;6.50;;;5.72;;
46463;SDS011;32161;48.148;-1.554;2023-09-18T05:49:20;5.90;;;5.40;;
46463;SDS011;32161;48.148;-1.554;2023-09-18T05:51:49;6.35;;;5.72;;
46463;SDS011;32161;48.148;-1.554;2023-09-18T05:54:16;6.35;;;5.30;;
46463;SDS011;32161;48.148;-1.554;2023-09-18T05:56:44;6.57;;;5.97;;
46463;SDS011;32161;48.148;-1.554;2023-09-18T05:59:12;7.80;;;5.78;;
46463;SDS011;32161;48.148;-1.554;2023-09-18T06:01:41;6.50;;;5.80;;
46463;SDS011;32161;48.148;-1.554;2023-09-18T06:04:09;12.30;;;6.22;;
46463;SDS011;32161;48.148;-1.554;2023-09-18T06:06:38;7.68;;;6.32;;
46463;SDS011;32161;48.148;-1.554;2023-09-18T06:09:05;6.93;;;5.93;;
46463;SDS011;32161;48.148;-1.554;2023-09-18T06:11:33;6.22;;;5.60;;
46463;SDS011;32161;48.148;-1.554;2023-09-18T06:14:00;7.13;;;6.43;;
46463;SDS011;32161;48.148;-1.554;2023-09-18T06:16:29;8.10;;;6.45;;
46463;SDS011;32161;48.148;-1.554;2023-09-18T06:18:57;13.32;;;7.38;;
46463;SDS011;32161;48.148;-1.554;2023-09-18T06:21:26;7.72;;;6.03;;
46463;SDS011;32161;48.148;-1.554;2023-09-18T06:23:54;9.60;;;6.82;;
46463;SDS011;32161;48.148;-1.554;2023-09-18T06:26:22;8.35;;;6.47;;
46463;SDS011;32161;48.148;-1.554;2023-09-18T06:28:49;12.38;;;6.28;;
46463;SDS011;32161;48.148;-1.554;2023-09-18T06:31:17;11.80;;;6.22;;
46463;SDS011;32161;48.148;-1.554;2023-09-18T06:33:46;6.15;;;5.65;;
46463;SDS011;32161;48.148;-1.554;2023-09-18T06:36:13;9.38;;;5.38;;
46463;SDS011;32161;48.148;-1.554;2023-09-18T06:38:41;10.60;;;6.32;;
46463;SDS011;32161;48.148;-1.554;2023-09-18T06:41:09;6.82;;;5.35;;
46463;SDS011;32161;48.148;-1.554;2023-09-18T06:43:36;6.28;;;5.22;;
46463;SDS011;32161;48.148;-1.554;2023-09-18T06:46:04;7.35;;;5.53;;
46463;SDS011;32161;48.148;-1.554;2023-09-18T06:48:33;7.50;;;6.00;;
46463;SDS011;32161;48.148;-1.554;2023-09-18T06:51:03;6.32;;;5.10;;
46463;SDS011;32161;48.148;-1.554;2023-09-18T06:53:31;7.05;;;5.10;;
46463;SDS011;32161;48.148;-1.554;2023-09-18T06:55:59;5.90;;;4.93;;
46463;SDS011;32161;48.148;-1.554;2023-09-18T06:58:27;8.30;;;5.25;;
46463;SDS011;32161;48.148;-1.554;2023-09-18T07:00:54;6.03;;;4.50;;
46463;SDS011;32161;48.148;-1.554;2023-09-18T07:03:23;6.30;;;4.70;;
46463;SDS011;32161;48.148;-1.554;2023-09-18T07:05:51;6.43;;;4.80;;
46463;SDS011;32161;48.148;-1.554;2023-09-18T07:08:20;5.93;;;4.85;;
46463;SDS011;32161;48.148;-1.554;2023-09-18T07:10:48;5.35;;;3.80;;
46463;SDS011;32161;48.148;-1.554;2023-09-18T07:13:16;6.90;;;4.43;;
46463;SDS011;32161;48.148;-1.554;2023-09-18T07:15:44;8.65;;;4.03;;
46463;SDS011;32161;48.148;-1.554;2023-09-18T07:18:13;4.70;;;4.05;;
46463;SDS011;32161;48.148;-1.554;2023-09-18T07:20:41;6.30;;;4.60;;
46463;SDS011;32161;48.148;-1.554;2023-09-18T07:23:10;5.03;;;3.95;;
46463;SDS011;32161;48.148;-1.554;2023-09-18T07:25:39;7.22;;;4.28;;
46463;SDS011;32161;48.148;-1.554;2023-09-18T07:28:08;6.20;;;4.13;;
46463;SDS011;32161;48.148;-1.554;2023-09-18T07:30:41;4.55;;;3.90;;
46463;SDS011;32161;48.148;-1.554;2023-09-18T07:33:09;5.68;;;4.00;;
46463;SDS011;32161;48.148;-1.554;2023-09-18T07:35:36;7.55;;;3.65;;
46463;SDS011;32161;48.148;-1.554;2023-09-18T07:38:04;3.35;;;3.15;;
46463;SDS011;32161;48.148;-1.554;2023-09-18T07:40:32;5.07;;;3.35;;
46463;SDS011;32161;48.148;-1.554;2023-09-18T07:43:00;9.65;;;3.55;;
46463;SDS011;32161;48.148;-1.554;2023-09-18T07:45:28;5.93;;;3.17;;
46463;SDS011;32161;48.148;-1.554;2023-09-18T07:47:56;5.70;;;3.42;;
46463;SDS011;32161;48.148;-1.554;2023-09-18T07:50:23;6.88;;;3.40;;
46463;SDS011;32161;48.148;-1.554;2023-09-18T07:52:52;6.10;;;3.13;;
46463;SDS011;32161;48.148;-1.554;2023-09-18T07:55:19;4.28;;;3.20;;
46463;SDS011;32161;48.148;-1.554;2023-09-18T07:57:47;5.35;;;3.15;;
46463;SDS011;32161;48.148;-1.554;2023-09-18T08:00:18;5.18;;;3.38;;
46463;SDS011;32161;48.148;-1.554;2023-09-18T08:05:15;6.20;;;3.08;;
46463;SDS011;32161;48.148;-1.554;2023-09-18T08:07:43;4.32;;;2.85;;
46463;SDS011;32161;48.148;-1.554;2023-09-18T08:10:13;4.63;;;2.72;;
46463;SDS011;32161;48.148;-1.554;2023-09-18T08:12:40;4.72;;;3.28;;
46463;SDS011;32161;48.148;-1.554;2023-09-18T08:15:08;6.35;;;3.17;;
46463;SDS011;32161;48.148;-1.554;2023-09-18T08:17:37;7.80;;;2.97;;
46463;SDS011;32161;48.148;-1.554;2023-09-18T08:20:08;3.58;;;2.40;;
46463;SDS011;32161;48.148;-1.554;2023-09-18T08:22:39;3.45;;;2.50;;
46463;SDS011;32161;48.148;-1.554;2023-09-18T08:25:07;8.50;;;2.55;;
46463;SDS011;32161;48.148;-1.554;2023-09-18T08:27:36;3.15;;;1.90;;
46463;SDS011;32161;48.148;-1.554;2023-09-18T08:30:07;4.53;;;2.17;;
46463;SDS011;32161;48.148;-1.554;2023-09-18T08:32:37;5.70;;;1.80;;
46463;SDS011;32161;48.148;-1.554;2023-09-18T08:35:08;3.17;;;2.03;;
46463;SDS011;32161;48.148;-1.554;2023-09-18T08:37:35;4.40;;;1.92;;
46463;SDS011;32161;48.148;-1.554;2023-09-18T08:40:03;4.45;;;2.00;;
46463;SDS011;32161;48.148;-1.554;2023-09-18T08:42:35;5.63;;;1.80;;
46463;SDS011;32161;48.148;-1.554;2023-09-18T08:45:05;3.42;;;1.90;;
46463;SDS011;32161;48.148;-1.554;2023-09-18T08:47:38;3.13;;;1.67;;
46463;SDS011;32161;48.148;-1.554;2023-09-18T08:50:07;1.90;;;1.38;;
46463;SDS011;32161;48.148;-1.554;2023-09-18T08:52:36;5.30;;;1.63;;
46463;SDS011;32161;48.148;-1.554;2023-09-18T08:55:04;4.90;;;1.48;;
46463;SDS011;32161;48.148;-1.554;2023-09-18T08:57:33;7.03;;;1.85;;
46463;SDS011;32161;48.148;-1.554;2023-09-18T09:00:03;2.90;;;1.80;;
46463;SDS011;32161;48.148;-1.554;2023-09-18T09:02:33;3.45;;;1.50;;
46463;SDS011;32161;48.148;-1.554;2023-09-18T09:05:02;4.32;;;1.58;;
46463;SDS011;32161;48.148;-1.554;2023-09-18T09:07:31;2.97;;;1.30;;
46463;SDS011;32161;48.148;-1.554;2023-09-18T09:09:58;2.28;;;1.60;;
46463;SDS011;32161;48.148;-1.554;2023-09-18T09:15:16;6.63;;;1.65;;
46463;SDS011;32161;48.148;-1.554;2023-09-18T09:17:44;1.48;;;1.30;;
46463;SDS011;32161;48.148;-1.554;2023-09-18T09:20:14;2.13;;;1.13;;
46463;SDS011;32161;48.148;-1.554;2023-09-18T09:22:44;3.58;;;1.60;;
46463;SDS011;32161;48.148;-1.554;2023-09-18T09:25:24;6.45;;;1.60;;
46463;SDS011;32161;48.148;-1.554;2023-09-18T09:27:57;5.75;;;1.67;;
46463;SDS011;32161;48.148;-1.554;2023-09-18T09:30:25;3.05;;;1.20;;
46463;SDS011;32161;48.148;-1.554;2023-09-18T09:32:55;1.95;;;1.65;;
46463;SDS011;32161;48.148;-1.554;2023-09-18T09:35:26;2.50;;;1.60;;
46463;SDS011;32161;48.148;-1.554;2023-09-18T09:37:58;3.83;;;1.55;;
46463;SDS011;32161;48.148;-1.554;2023-09-18T09:40:27;5.70;;;2.42;;
46463;SDS011;32161;48.148;-1.554;2023-09-18T09:42:56;2.97;;;1.40;;
46463;SDS011;32161;48.148;-1.554;2023-09-18T09:45:30;4.18;;;1.52;;
46463;SDS011;32161;48.148;-1.554;2023-09-18T09:48:01;2.65;;;1.20;;
46463;SDS011;32161;48.148;-1.554;2023-09-18T09:50:32;7.53;;;1.88;;
46463;SDS011;32161;48.148;-1.554;2023-09-18T09:53:00;4.43;;;1.67;;
46463;SDS011;32161;48.148;-1.554;2023-09-18T09:55:29;4.18;;;1.60;;
46463;SDS011;32161;48.148;-1.554;2023-09-18T09:57:59;4.00;;;1.60;;
46463;SDS011;32161;48.148;-1.554;2023-09-18T10:00:29;4.38;;;2.10;;
46463;SDS011;32161;48.148;-1.554;2023-09-18T10:03:03;3.22;;;1.55;;
46463;SDS011;32161;48.148;-1.554;2023-09-18T10:05:35;1.65;;;1.25;;
46463;SDS011;32161;48.148;-1.554;2023-09-18T10:08:06;3.50;;;1.55;;
46463;SDS011;32161;48.148;-1.554;2023-09-18T10:10:38;2.85;;;1.23;;
46463;SDS011;32161;48.148;-1.554;2023-09-18T10:13:12;3.55;;;1.60;;
46463;SDS011;32161;48.148;-1.554;2023-09-18T10:15:46;1.88;;;1.30;;
46463;SDS011;32161;48.148;-1.554;2023-09-18T10:20:50;5.53;;;2.42;;
46463;SDS011;32161;48.148;-1.554;2023-09-18T10:23:26;5.22;;;1.30;;
46463;SDS011;32161;48.148;-1.554;2023-09-18T10:26:09;3.70;;;1.48;;
46463;SDS011;32161;48.148;-1.554;2023-09-18T10:28:40;4.95;;;1.50;;
46463;SDS011;32161;48.148;-1.554;2023-09-18T10:31:09;3.95;;;2.08;;
46463;SDS011;32161;48.148;-1.554;2023-09-18T10:33:38;4.60;;;1.48;;
46463;SDS011;32161;48.148;-1.554;2023-09-18T10:36:08;2.25;;;1.80;;
46463;SDS011;32161;48.148;-1.554;2023-09-18T10:38:38;4.40;;;1.50;;
46463;SDS011;32161;48.148;-1.554;2023-09-18T10:41:06;7.13;;;2.00;;
46463;SDS011;32161;48.148;-1.554;2023-09-18T10:43:36;3.00;;;1.40;;
46463;SDS011;32161;48.148;-1.554;2023-09-18T10:46:04;2.92;;;1.80;;
46463;SDS011;32161;48.148;-1.554;2023-09-18T10:48:32;3.35;;;1.65;;
46463;SDS011;32161;48.148;-1.554;2023-09-18T10:51:00;3.75;;;1.50;;
46463;SDS011;32161;48.148;-1.554;2023-09-18T10:53:32;2.03;;;1.45;;
46463;SDS011;32161;48.148;-1.554;2023-09-18T10:56:01;2.83;;;1.52;;
46463;SDS011;32161;48.148;-1.554;2023-09-18T10:58:29;2.33;;;1.42;;
46463;SDS011;32161;48.148;-1.554;2023-09-18T11:01:00;3.35;;;1.70;;
46463;SDS011;32161;48.148;-1.554;2023-09-18T11:03:29;2.33;;;1.45;;
46463;SDS011;32161;48.148;-1.554;2023-09-18T11:06:02;2.72;;;1.45;;
46463;SDS011;32161;48.148;-1.554;2023-09-18T11:08:34;3.28;;;1.35;;
46463;SDS011;32161;48.148;-1.554;2023-09-18T11:11:11;3.05;;;1.45;;
46463;SDS011;32161;48.148;-1.554;2023-09-18T11:13:41;2.50;;;1.40;;
46463;SDS011;32161;48.148;-1.554;2023-09-18T11:16:15;3.10;;;1.30;;
46463;SDS011;32161;48.148;-1.554;2023-09-18T11:19:04;1.42;;;1.33;;
46463;SDS011;32161;48.148;-1.554;2023-09-18T11:21:36;1.52;;;0.93;;
46463;SDS011;32161;48.148;-1.554;2023-09-18T11:24:06;3.10;;;1.33;;
46463;SDS011;32161;48.148;-1.554;2023-09-18T11:26:43;2.15;;;1.20;;
46463;SDS011;32161;48.148;-1.554;2023-09-18T11:29:14;1.75;;;1.45;;
46463;SDS011;32161;48.148;-1.554;2023-09-18T11:31:45;2.72;;;1.48;;
46463;SDS011;32161;48.148;-1.554;2023-09-18T11:34:19;3.42;;;1.48;;
46463;SDS011;32161;48.148;-1.554;2023-09-18T11:36:48;2.15;;;1.00;;
46463;SDS011;32161;48.148;-1.554;2023-09-18T11:39:34;3.70;;;1.10;;
46463;SDS011;32161;48.148;-1.554;2023-09-18T11:42:07;2.45;;;1.27;;
46463;SDS011;32161;48.148;-1.554;2023-09-18T11:44:37;3.25;;;1.02;;
46463;SDS011;32161;48.148;-1.554;2023-09-18T11:47:11;1.38;;;1.27;;
46463;SDS011;32161;48.148;-1.554;2023-09-18T11:49:47;1.50;;;1.13;;
46463;SDS011;32161;48.148;-1.554;2023-09-18T11:52:23;3.53;;;0.95;;
46463;SDS011;32161;48.148;-1.554;2023-09-18T11:54:54;1.65;;;1.10;;
46463;SDS011;32161;48.148;-1.554;2023-09-18T11:57:23;1.80;;;1.48;;
46463;SDS011;32161;48.148;-1.554;2023-09-18T11:59:51;11.27;;;1.23;;
46463;SDS011;32161;48.148;-1.554;2023-09-18T12:02:30;2.90;;;1.17;;
46463;SDS011;32161;48.148;-1.554;2023-09-18T12:05:04;3.03;;;0.90;;
46463;SDS011;32161;48.148;-1.554;2023-09-18T12:07:36;1.33;;;1.00;;
46463;SDS011;32161;48.148;-1.554;2023-09-18T12:10:06;5.30;;;1.70;;
46463;SDS011;32161;48.148;-1.554;2023-09-18T12:12:36;2.35;;;1.00;;
46463;SDS011;32161;48.148;-1.554;2023-09-18T12:15:04;1.25;;;0.95;;
46463;SDS011;32161;48.148;-1.554;2023-09-18T12:17:34;3.58;;;1.20;;
46463;SDS011;32161;48.148;-1.554;2023-09-18T12:20:01;2.22;;;0.95;;
46463;SDS011;32161;48.148;-1.554;2023-09-18T12:22:30;1.92;;;0.90;;
46463;SDS011;32161;48.148;-1.554;2023-09-18T12:27:37;1.70;;;1.33;;
46463;SDS011;32161;48.148;-1.554;2023-09-18T12:30:06;1.98;;;0.80;;
46463;SDS011;32161;48.148;-1.554;2023-09-18T12:32:35;2.63;;;1.20;;
46463;SDS011;32161;48.148;-1.554;2023-09-18T12:35:04;1.40;;;1.30;;
46463;SDS011;32161;48.148;-1.554;2023-09-18T12:37:34;2.42;;;0.98;;
46463;SDS011;32161;48.148;-1.554;2023-09-18T12:40:06;1.98;;;0.93;;
46463;SDS011;32161;48.148;-1.554;2023-09-18T12:42:48;1.85;;;0.98;;
46463;SDS011;32161;48.148;-1.554;2023-09-18T12:45:16;1.33;;;1.23;;
46463;SDS011;32161;48.148;-1.554;2023-09-18T12:47:44;1.40;;;1.05;;
46463;SDS011;32161;48.148;-1.554;2023-09-18T12:50:13;0.98;;;0.93;;
46463;SDS011;32161;48.148;-1.554;2023-09-18T12:52:40;2.53;;;1.00;;
46463;SDS011;32161;48.148;-1.554;2023-09-18T12:55:08;1.20;;;0.90;;
46463;SDS011;32161;48.148;-1.554;2023-09-18T12:57:49;2.28;;;1.15;;
46463;SDS011;32161;48.148;-1.554;2023-09-18T13:00:17;8.15;;;0.95;;
46463;SDS011;32161;48.148;-1.554;2023-09-18T13:02:48;1.52;;;1.10;;
46463;SDS011;32161;48.148;-1.554;2023-09-18T13:05:20;2.45;;;1.33;;
46463;SDS011;32161;48.148;-1.554;2023-09-18T13:07:51;3.38;;;1.10;;
46463;SDS011;32161;48.148;-1.554;2023-09-18T13:10:19;2.50;;;1.00;;
46463;SDS011;32161;48.148;-1.554;2023-09-18T13:12:49;1.50;;;0.90;;
46463;SDS011;32161;48.148;-1.554;2023-09-18T13:15:24;1.70;;;0.90;;
46463;SDS011;32161;48.148;-1.554;2023-09-18T13:17:53;1.10;;;1.00;;
46463;SDS011;32161;48.148;-1.554;2023-09-18T13:20:22;3.38;;;1.20;;
46463;SDS011;32161;48.148;-1.554;2023-09-18T13:22:54;1.42;;;0.77;;
46463;SDS011;32161;48.148;-1.554;2023-09-18T13:25:28;2.67;;;1.00;;
46463;SDS011;32161;48.148;-1.554;2023-09-18T13:28:00;1.70;;;1.13;;
46463;SDS011;32161;48.148;-1.554;2023-09-18T13:30:30;4.53;;;1.75;;
46463;SDS011;32161;48.148;-1.554;2023-09-18T13:33:03;6.05;;;1.02;;
46463;SDS011;32161;48.148;-1.554;2023-09-18T13:35:32;2.58;;;0.65;;
46463;SDS011;32161;48.148;-1.554;2023-09-18T13:38:00;2.67;;;0.80;;
46463;SDS011;32161;48.148;-1.554;2023-09-18T13:40:29;1.50;;;0.90;;
46463;SDS011;32161;48.148;-1.554;2023-09-18T13:42:58;1.98;;;1.00;;
46463;SDS011;32161;48.148;-1.554;2023-09-18T13:45:28;1.60;;;1.00;;
46463;SDS011;32161;48.148;-1.554;2023-09-18T13:47:56;5.25;;;0.88;;
46463;SDS011;32161;48.148;-1.554;2023-09-18T13:50:24;1.77;;;0.73;;
46463;SDS011;32161;48.148;-1.554;2023-09-18T13:52:52;1.88;;;0.93;;
46463;SDS011;32161;48.148;-1.554;2023-09-18T13:55:19;1.42;;;0.80;;
46463;SDS011;32161;48.148;-1.554;2023-09-18T13:57:47;2.45;;;0.70;;
46463;SDS011;32161;48.148;-1.554;2023-09-18T14:00:16;1.48;;;1.15;;
46463;SDS011;32161;48.148;-1.554;2023-09-18T14:02:45;1.83;;;0.93;;
46463;SDS011;32161;48.148;-1.554;2023-09-18T14:05:13;2.92;;;0.70;;
46463;SDS011;32161;48.148;-1.554;2023-09-18T14:07:41;1.70;;;0.98;;
46463;SDS011;32161;48.148;-1.554;2023-09-18T14:10:09;2.53;;;0.90;;
46463;SDS011;32161;48.148;-1.554;2023-09-18T14:12:37;1.98;;;0.95;;
46463;SDS011;32161;48.148;-1.554;2023-09-18T14:15:05;1.75;;;0.80;;
46463;SDS011;32161;48.148;-1.554;2023-09-18T14:17:36;4.10;;;1.10;;
46463;SDS011;32161;48.148;-1.554;2023-09-18T14:22:34;1.27;;;0.90;;
46463;SDS011;32161;48.148;-1.554;2023-09-18T14:25:02;1.30;;;0.95;;
46463;SDS011;32161;48.148;-1.554;2023-09-18T14:27:31;1.00;;;0.90;;
46463;SDS011;32161;48.148;-1.554;2023-09-18T14:30:00;1.60;;;0.80;;
46463;SDS011;32161;48.148;-1.554;2023-09-18T14:32:31;2.28;;;0.65;;
46463;SDS011;32161;48.148;-1.554;2023-09-18T14:35:02;1.05;;;0.80;;
46463;SDS011;32161;48.148;-1.554;2023-09-18T14:37:33;5.18;;;1.40;;
46463;SDS011;32161;48.148;-1.554;2023-09-18T14:40:01;1.88;;;0.70;;
46463;SDS011;32161;48.148;-1.554;2023-09-18T14:42:31;1.92;;;1.05;;
46463;SDS011;32161;48.148;-1.554;2023-09-18T14:44:59;2.40;;;0.80;;
46463;SDS011;32161;48.148;-1.554;2023-09-18T14:47:26;2.78;;;1.08;;
46463;SDS011;32161;48.148;-1.554;2023-09-18T14:49:55;3.30;;;0.75;;
46463;SDS011;32161;48.148;-1.554;2023-09-18T14:52:25;2.92;;;1.00;;
46463;SDS011;32161;48.148;-1.554;2023-09-18T14:54:52;2.88;;;0.95;;
46463;SDS011;32161;48.148;-1.554;2023-09-18T14:57:20;3.10;;;0.93;;